createdAt,value
2023-05-04T00:00:20.175Z,99.13
2023-05-04T00:02:47.383Z,99.80
2023-05-04T00:05:14.688Z,100.00
2023-05-04T00:07:41.933Z,100.00
2023-05-04T00:10:09.613Z,100.00
2023-05-04T00:12:36.759Z,100.00
2023-05-04T00:15:04.505Z,100.00
2023-05-04T00:17:32.135Z,100.00
2023-05-04T00:19:59.060Z,100.00
2023-05-04T00:22:26.256Z,100.00
2023-05-04T00:24:53.220Z,100.00
2023-05-04T00:27:20.351Z,100.00
2023-05-04T00:29:47.280Z,100.00
2023-05-04T00:32:14.306Z,100.00
2023-05-04T00:34:41.764Z,100.00
2023-05-04T00:37:08.708Z,100.00
2023-05-04T00:39:35.734Z,100.00
2023-05-04T00:42:03.440Z,100.00
2023-05-04T00:44:30.397Z,100.00
2023-05-04T00:46:57.941Z,100.00
2023-05-04T00:49:25.608Z,100.00
2023-05-04T00:51:55.269Z,100.00
2023-05-04T00:54:23.449Z,100.00
2023-05-04T00:56:51.086Z,100.00
2023-05-04T00:59:18.082Z,100.00
2023-05-04T01:01:44.993Z,100.00
2023-05-04T01:04:12.655Z,100.00
2023-05-04T01:06:48.935Z,100.00
2023-05-04T01:09:31.318Z,100.00
2023-05-04T01:12:12.457Z,100.00
2023-05-04T01:14:41.951Z,100.00
2023-05-04T01:17:09.060Z,100.00
2023-05-04T01:19:36.236Z,100.00
2023-05-04T01:22:04.177Z,100.00
2023-05-04T01:24:31.835Z,100.00
2023-05-04T01:27:11.954Z,100.00
2023-05-04T01:29:45.505Z,100.00
2023-05-04T01:32:15.236Z,100.00
2023-05-04T01:34:42.392Z,100.00
2023-05-04T01:37:09.610Z,100.00
2023-05-04T01:39:36.724Z,100.00
2023-05-04T01:42:03.672Z,100.00
2023-05-04T01:44:30.709Z,100.00
2023-05-04T01:46:57.647Z,100.00
2023-05-04T01:49:24.596Z,100.00
2023-05-04T01:51:55.994Z,100.00
2023-05-04T01:54:25.005Z,100.00
2023-05-04T01:56:51.874Z,100.00
2023-05-04T01:59:18.889Z,100.00
2023-05-04T02:01:45.937Z,100.00
2023-05-04T02:04:13.011Z,100.00
2023-05-04T02:06:39.925Z,100.00
2023-05-04T02:09:07.295Z,100.00
2023-05-04T02:11:34.260Z,100.00
2023-05-04T02:14:01.294Z,100.00
2023-05-04T02:16:28.407Z,100.00
2023-05-04T02:18:55.477Z,100.00
2023-05-04T02:21:22.420Z,100.00
2023-05-04T02:23:49.579Z,100.00
2023-05-04T02:26:16.817Z,100.00
2023-05-04T02:28:43.796Z,100.00
2023-05-04T02:31:10.939Z,100.00
2023-05-04T02:33:37.942Z,100.00
2023-05-04T02:36:05.221Z,100.00
2023-05-04T02:38:32.200Z,100.00
2023-05-04T02:40:59.147Z,100.00
2023-05-04T02:43:26.168Z,100.00
2023-05-04T02:45:53.100Z,100.00
2023-05-04T02:48:20.639Z,100.00
2023-05-04T02:50:47.871Z,100.00
2023-05-04T02:53:14.812Z,100.00
2023-05-04T02:55:42.085Z,100.00
2023-05-04T02:58:09.113Z,100.00
2023-05-04T03:00:36.081Z,100.00
2023-05-04T03:03:03.178Z,100.00
2023-05-04T03:05:30.078Z,100.00
2023-05-04T03:07:57.132Z,100.00
2023-05-04T03:10:24.072Z,100.00
2023-05-04T03:12:51.062Z,100.00
2023-05-04T03:15:18.326Z,100.00
2023-05-04T03:17:45.792Z,100.00
2023-05-04T03:20:13.517Z,100.00
2023-05-04T03:22:41.827Z,100.00
2023-05-04T03:25:09.313Z,100.00
2023-05-04T03:27:36.736Z,100.00
2023-05-04T03:30:04.133Z,100.00
2023-05-04T03:32:31.649Z,100.00
2023-05-04T03:34:58.644Z,100.00
2023-05-04T03:37:26.786Z,100.00
2023-05-04T03:39:53.686Z,100.00
2023-05-04T03:42:20.786Z,100.00
2023-05-04T03:44:47.742Z,100.00
2023-05-04T03:47:15.145Z,100.00
2023-05-04T03:49:43.036Z,100.00
2023-05-04T03:52:10.056Z,100.00
2023-05-04T03:54:37.938Z,100.00
2023-05-04T03:57:04.897Z,100.00
2023-05-04T03:59:33.786Z,100.00
2023-05-04T04:02:04.020Z,100.00
2023-05-04T04:04:31.151Z,100.00
2023-05-04T04:06:58.139Z,100.00
2023-05-04T04:09:25.741Z,100.00
2023-05-04T04:11:52.669Z,100.00
2023-05-04T04:14:19.655Z,100.00
2023-05-04T04:16:46.730Z,100.00
2023-05-04T04:19:13.659Z,100.00
2023-05-04T04:21:40.769Z,100.00
2023-05-04T04:24:07.965Z,100.00
2023-05-04T04:26:35.493Z,100.00
2023-05-04T04:29:02.625Z,100.00
2023-05-04T04:31:30.790Z,100.00
2023-05-04T04:33:58.072Z,100.00
2023-05-04T04:36:25.048Z,100.00
2023-05-04T04:38:52.640Z,100.00
2023-05-04T04:41:19.610Z,100.00
2023-05-04T04:43:46.601Z,100.00
2023-05-04T04:46:13.559Z,100.00
2023-05-04T04:48:40.708Z,100.00
2023-05-04T04:51:11.781Z,100.00
2023-05-04T04:53:39.486Z,100.00
2023-05-04T04:56:07.793Z,100.00
2023-05-04T04:58:34.720Z,100.00
2023-05-04T05:01:04.654Z,100.00
2023-05-04T05:03:32.390Z,100.00
2023-05-04T05:06:01.951Z,100.00
2023-05-04T05:08:28.882Z,100.00
2023-05-04T05:10:56.531Z,100.00
2023-05-04T05:13:23.686Z,100.00
2023-05-04T05:15:50.831Z,94.48
2023-05-04T05:18:17.899Z,88.70
2023-05-04T05:20:44.889Z,76.27
2023-05-04T05:23:11.962Z,78.42
2023-05-04T05:25:39.364Z,83.00
2023-05-04T05:28:06.382Z,80.23
2023-05-04T05:30:33.359Z,91.02
2023-05-04T05:33:00.466Z,83.51
2023-05-04T05:35:27.473Z,90.46
2023-05-04T05:37:54.462Z,79.67
2023-05-04T05:40:22.637Z,89.77
2023-05-04T05:42:49.699Z,80.66
2023-05-04T05:45:16.683Z,89.64
2023-05-04T05:47:43.712Z,85.49
2023-05-04T05:50:12.803Z,78.67
2023-05-04T05:52:40.122Z,80.15
2023-05-04T05:55:07.498Z,77.99
2023-05-04T05:57:34.575Z,76.76
2023-05-04T06:00:01.601Z,78.22
2023-05-04T06:02:39.312Z,78.53
2023-05-04T06:05:06.622Z,75.44
2023-05-04T06:07:33.831Z,75.79
2023-05-04T06:10:01.010Z,74.29
2023-05-04T06:12:28.031Z,74.90
2023-05-04T06:14:55.052Z,75.26
2023-05-04T06:17:22.238Z,72.71
2023-05-04T06:19:51.422Z,72.57
2023-05-04T06:22:18.439Z,75.58
2023-05-04T06:24:45.573Z,70.96
2023-05-04T06:27:12.523Z,72.96
2023-05-04T06:29:40.766Z,70.18
2023-05-04T06:32:10.125Z,68.49
2023-05-04T06:34:37.317Z,66.33
2023-05-04T06:37:04.700Z,67.20
2023-05-04T06:39:31.846Z,66.92
2023-05-04T06:41:58.876Z,65.57
2023-05-04T06:44:27.104Z,64.95
2023-05-04T06:46:54.525Z,66.57
2023-05-04T06:49:21.731Z,64.36
2023-05-04T06:51:48.655Z,65.97
2023-05-04T06:54:15.767Z,69.75
2023-05-04T06:56:43.274Z,66.99
2023-05-04T06:59:10.579Z,68.15
2023-05-04T07:01:37.955Z,68.31
2023-05-04T07:04:05.472Z,64.80
2023-05-04T07:06:32.624Z,64.95
2023-05-04T07:09:00.344Z,63.16
2023-05-04T07:11:28.897Z,64.91
2023-05-04T07:13:56.199Z,63.65
2023-05-04T07:16:23.356Z,64.18
2023-05-04T07:18:50.283Z,61.17
2023-05-04T07:21:27.846Z,63.23
2023-05-04T07:23:56.393Z,59.44
2023-05-04T07:26:23.596Z,57.60
2023-05-04T07:28:50.972Z,57.48
2023-05-04T07:31:18.106Z,59.61
2023-05-04T07:33:45.042Z,60.45
2023-05-04T07:36:11.993Z,59.86
2023-05-04T07:38:39.184Z,57.89
2023-05-04T07:41:07.476Z,61.15
2023-05-04T07:43:34.397Z,61.05
2023-05-04T07:46:01.886Z,59.39
2023-05-04T07:48:29.117Z,58.80
2023-05-04T07:50:56.022Z,57.55
2023-05-04T07:53:25.643Z,58.23
2023-05-04T07:55:54.505Z,61.66
2023-05-04T07:58:21.418Z,60.31
2023-05-04T08:00:48.321Z,58.10
2023-05-04T08:03:15.674Z,57.13
2023-05-04T08:05:42.610Z,55.46
2023-05-04T08:08:09.933Z,55.88
2023-05-04T08:10:37.403Z,57.42
2023-05-04T08:13:07.485Z,58.98
2023-05-04T08:15:34.591Z,57.76
2023-05-04T08:18:01.573Z,57.38
2023-05-04T08:20:28.732Z,56.47
2023-05-04T08:22:55.872Z,56.72
2023-05-04T08:25:23.349Z,53.98
2023-05-04T08:27:50.454Z,53.08
2023-05-04T08:30:17.620Z,53.05
2023-05-04T08:32:44.660Z,54.29
2023-05-04T08:35:11.608Z,54.28
2023-05-04T08:37:38.587Z,52.56
2023-05-04T08:40:06.177Z,52.52
2023-05-04T08:42:33.832Z,53.92
2023-05-04T08:45:01.501Z,49.46
2023-05-04T08:47:29.456Z,51.20
2023-05-04T08:49:59.353Z,51.98
2023-05-04T08:52:27.299Z,52.13
2023-05-04T08:54:56.018Z,48.60
2023-05-04T08:57:26.901Z,49.06
2023-05-04T08:59:55.794Z,48.57
2023-05-04T09:02:24.592Z,47.98
2023-05-04T09:04:53.172Z,48.82
2023-05-04T09:07:22.053Z,49.96
2023-05-04T09:09:51.924Z,49.51
2023-05-04T09:12:19.492Z,50.65
2023-05-04T09:14:49.671Z,49.19
2023-05-04T09:17:28.763Z,49.64
2023-05-04T09:20:03.475Z,49.58
2023-05-04T09:22:31.184Z,49.21
2023-05-04T09:25:07.735Z,50.99
2023-05-04T09:27:35.920Z,50.26
2023-05-04T09:30:03.031Z,47.64
2023-05-04T09:32:30.339Z,47.82
2023-05-04T09:34:57.772Z,48.14
2023-05-04T09:37:24.941Z,50.18
2023-05-04T09:39:54.072Z,50.65
2023-05-04T09:42:21.879Z,45.39
2023-05-04T09:44:59.871Z,45.16
2023-05-04T09:47:40.027Z,46.20
2023-05-04T09:50:20.928Z,45.56
2023-05-04T09:52:49.591Z,46.18
2023-05-04T09:55:20.967Z,47.27
2023-05-04T09:57:50.594Z,45.07
2023-05-04T10:00:18.532Z,43.76
2023-05-04T10:02:47.530Z,45.27
2023-05-04T10:05:22.008Z,44.16
2023-05-04T10:07:50.003Z,44.82
2023-05-04T10:10:17.055Z,44.95
2023-05-04T10:12:46.974Z,43.34
2023-05-04T10:15:16.295Z,43.59
2023-05-04T10:18:18.869Z,47.06
2023-05-04T10:21:04.632Z,48.73
2023-05-04T10:23:58.440Z,48.29
2023-05-04T10:26:40.661Z,50.91
2023-05-04T10:29:13.963Z,49.26
2023-05-04T10:31:42.993Z,46.72
2023-05-04T10:34:10.871Z,55.36
2023-05-04T10:36:39.183Z,46.48
2023-05-04T10:39:17.689Z,48.21
2023-05-04T10:42:06.545Z,47.36
2023-05-04T10:44:49.139Z,45.00
2023-05-04T10:47:16.249Z,48.29
2023-05-04T10:49:43.208Z,46.82
2023-05-04T10:52:12.755Z,46.18
2023-05-04T10:54:41.622Z,46.87
2023-05-04T10:57:10.858Z,46.60
2023-05-04T10:59:40.000Z,46.14
2023-05-04T11:02:08.181Z,49.20
2023-05-04T11:04:36.026Z,48.75
2023-05-04T11:07:09.044Z,48.54
2023-05-04T11:09:41.948Z,48.62
2023-05-04T11:12:12.315Z,46.59
2023-05-04T11:14:43.476Z,47.78
2023-05-04T11:19:52.517Z,45.70
2023-05-04T11:22:20.509Z,45.89
2023-05-04T11:24:50.972Z,45.65
2023-05-04T11:27:36.042Z,46.27
2023-05-04T11:30:07.975Z,45.80
2023-05-04T11:32:44.105Z,47.45
2023-05-04T11:35:15.811Z,47.61
2023-05-04T11:37:44.185Z,46.06
2023-05-04T11:40:25.194Z,45.00
2023-05-04T11:42:56.140Z,46.17
2023-05-04T11:45:27.397Z,47.94
2023-05-04T11:47:56.900Z,44.13
2023-05-04T11:50:25.449Z,43.48
2023-05-04T11:53:03.975Z,44.42
2023-05-04T11:55:31.777Z,44.67
2023-05-04T11:58:07.098Z,43.85
2023-05-04T12:00:34.766Z,45.01
2023-05-04T12:03:01.874Z,44.60
2023-05-04T12:05:30.232Z,45.33
2023-05-04T12:07:57.337Z,42.39
2023-05-04T12:10:29.184Z,44.64
2023-05-04T12:12:56.379Z,47.66
2023-05-04T12:15:30.960Z,46.45
2023-05-04T12:18:00.863Z,47.62
2023-05-04T12:20:31.188Z,46.19
2023-05-04T12:22:58.542Z,47.75
2023-05-04T12:25:25.552Z,47.84
2023-05-04T12:27:52.623Z,47.53
2023-05-04T12:30:19.728Z,48.28
2023-05-04T12:32:46.621Z,47.87
2023-05-04T12:35:13.598Z,46.67
2023-05-04T12:37:40.570Z,47.87
2023-05-04T12:40:21.135Z,47.39
2023-05-04T12:42:55.136Z,48.94
2023-05-04T12:45:22.864Z,44.53
2023-05-04T12:47:50.046Z,43.75
2023-05-04T12:50:17.243Z,45.37
2023-05-04T12:52:44.222Z,45.93
2023-05-04T12:55:11.318Z,45.99
2023-05-04T12:57:38.655Z,46.11
2023-05-04T13:00:09.791Z,43.26
2023-05-04T13:02:37.885Z,45.78
2023-05-04T13:05:05.596Z,46.11
2023-05-04T13:07:32.735Z,45.72
2023-05-04T13:09:59.692Z,45.47
2023-05-04T13:12:26.804Z,44.37
2023-05-04T13:14:55.716Z,43.69
2023-05-04T13:17:22.777Z,42.19
2023-05-04T13:19:49.840Z,44.49
2023-05-04T13:22:17.056Z,44.73
2023-05-04T13:24:43.983Z,44.39
2023-05-04T13:27:10.973Z,44.83
2023-05-04T13:29:38.200Z,43.59
2023-05-04T13:32:05.369Z,43.45
2023-05-04T13:34:33.117Z,42.55
2023-05-04T13:37:00.434Z,41.17
2023-05-04T13:39:28.399Z,41.62
2023-05-04T13:41:55.390Z,42.44
2023-05-04T13:44:25.336Z,42.31
2023-05-04T13:46:54.406Z,41.81
2023-05-04T13:49:21.352Z,39.22
2023-05-04T13:51:48.344Z,40.92
2023-05-04T13:54:15.248Z,43.19
2023-05-04T13:56:42.546Z,42.15
2023-05-04T13:59:09.450Z,40.90
2023-05-04T14:01:36.548Z,41.10
2023-05-04T14:04:03.489Z,40.82
2023-05-04T14:06:30.702Z,40.85
2023-05-04T14:08:59.331Z,40.10
2023-05-04T14:11:26.405Z,39.50
2023-05-04T14:13:56.402Z,41.76
2023-05-04T14:16:24.162Z,40.46
2023-05-04T14:18:51.238Z,41.55
2023-05-04T14:21:18.158Z,41.79
2023-05-04T14:23:46.523Z,39.83
2023-05-04T14:26:13.581Z,42.15
2023-05-04T14:28:40.844Z,41.93
2023-05-04T14:31:09.263Z,42.15
2023-05-04T14:33:36.793Z,44.66
2023-05-04T14:36:04.658Z,42.93
2023-05-04T14:38:32.999Z,42.49
2023-05-04T14:41:00.032Z,42.98
2023-05-04T14:43:27.127Z,42.80
2023-05-04T14:45:56.717Z,44.17
2023-05-04T14:48:26.256Z,42.85
2023-05-04T14:50:56.288Z,40.10
2023-05-04T14:53:24.062Z,40.13
2023-05-04T14:55:51.328Z,41.73
2023-05-04T14:58:18.647Z,43.72
2023-05-04T15:00:45.977Z,42.05
2023-05-04T15:03:13.378Z,41.60
2023-05-04T15:05:40.375Z,41.62
2023-05-04T15:08:07.358Z,41.87
2023-05-04T15:10:34.261Z,43.07
2023-05-04T15:13:01.905Z,42.32
2023-05-04T15:15:28.991Z,42.77
2023-05-04T15:17:56.026Z,39.31
2023-05-04T15:20:23.003Z,36.58
2023-05-04T15:22:53.758Z,36.14
2023-05-04T15:25:24.016Z,34.60
2023-05-04T15:27:51.043Z,32.47
2023-05-04T15:30:18.377Z,32.09
2023-05-04T15:32:45.363Z,30.91
2023-05-04T15:35:12.356Z,30.96
2023-05-04T15:37:39.309Z,29.35
2023-05-04T15:40:07.299Z,29.06
2023-05-04T15:42:34.522Z,31.52
2023-05-04T15:45:01.457Z,31.95
2023-05-04T15:47:28.661Z,31.49
2023-05-04T15:49:55.910Z,31.13
2023-05-04T15:52:24.057Z,30.98
2023-05-04T15:54:51.118Z,30.64
2023-05-04T15:57:18.120Z,32.30
2023-05-04T15:59:47.864Z,32.31
2023-05-04T16:02:15.256Z,31.85
2023-05-04T16:04:42.452Z,33.34
2023-05-04T16:07:09.452Z,34.82
2023-05-04T16:09:36.372Z,37.78
2023-05-04T16:12:05.454Z,38.34
2023-05-04T16:14:32.349Z,37.86
2023-05-04T16:17:02.490Z,35.60
2023-05-04T16:19:29.544Z,36.50
2023-05-04T16:21:56.541Z,37.05
2023-05-04T16:24:23.733Z,37.46
2023-05-04T16:26:51.875Z,38.90
2023-05-04T16:29:18.812Z,40.33
2023-05-04T16:31:48.903Z,40.95
2023-05-04T16:34:16.020Z,42.95
2023-05-04T16:36:43.985Z,43.94
2023-05-04T16:39:11.024Z,44.27
2023-05-04T16:41:37.894Z,44.55
2023-05-04T16:44:05.077Z,44.20
2023-05-04T16:46:34.641Z,44.34
2023-05-04T16:49:01.617Z,44.61
2023-05-04T16:51:28.529Z,44.62
2023-05-04T16:53:57.954Z,45.10
2023-05-04T16:56:24.957Z,45.39
2023-05-04T16:58:51.925Z,44.83
2023-05-04T17:01:18.873Z,44.65
2023-05-04T17:03:46.235Z,44.24
2023-05-04T17:06:13.199Z,43.70
2023-05-04T17:08:40.202Z,43.01
2023-05-04T17:11:07.066Z,41.97
2023-05-04T17:13:34.118Z,42.14
2023-05-04T17:16:01.326Z,42.15
2023-05-04T17:18:29.074Z,40.81
2023-05-04T17:20:56.080Z,42.15
2023-05-04T17:23:23.166Z,42.85
2023-05-04T17:25:50.585Z,44.42
2023-05-04T17:28:17.509Z,46.49
2023-05-04T17:30:44.865Z,48.14
2023-05-04T17:33:11.830Z,49.74
2023-05-04T17:35:38.811Z,51.47
2023-05-04T17:38:06.146Z,52.19
2023-05-04T17:40:33.130Z,53.95
2023-05-04T17:43:01.008Z,55.68
2023-05-04T17:45:28.037Z,58.03
2023-05-04T17:47:55.086Z,59.52
2023-05-04T17:50:22.536Z,61.34
2023-05-04T17:52:54.629Z,64.04
2023-05-04T17:55:24.666Z,64.01
2023-05-04T17:57:53.065Z,65.85
2023-05-04T18:00:20.814Z,67.55
2023-05-04T18:02:47.916Z,68.59
2023-05-04T18:05:14.941Z,70.52
2023-05-04T18:07:42.002Z,70.93
2023-05-04T18:10:09.438Z,73.05
2023-05-04T18:12:38.215Z,72.74
2023-05-04T18:15:08.443Z,74.28
2023-05-04T18:17:38.054Z,76.09
2023-05-04T18:20:08.488Z,78.35
2023-05-04T18:22:36.052Z,80.05
2023-05-04T18:25:03.181Z,80.90
2023-05-04T18:27:33.768Z,81.81
2023-05-04T18:30:01.577Z,83.74
2023-05-04T18:32:28.507Z,84.81
2023-05-04T18:34:58.097Z,86.00
2023-05-04T18:37:25.762Z,85.90
2023-05-04T18:39:52.881Z,87.09
2023-05-04T18:42:19.826Z,87.87
2023-05-04T18:44:46.734Z,88.31
2023-05-04T18:47:13.662Z,89.37
2023-05-04T18:49:40.608Z,90.25
2023-05-04T18:52:07.510Z,91.87
2023-05-04T18:54:34.598Z,90.69
2023-05-04T18:57:02.987Z,91.19
2023-05-04T18:59:34.147Z,91.79
2023-05-04T19:02:02.259Z,94.59
2023-05-04T19:04:29.860Z,95.73
2023-05-04T19:07:00.139Z,96.26
2023-05-04T19:09:27.153Z,97.57
2023-05-04T19:11:54.063Z,97.86
2023-05-04T19:14:21.906Z,96.94
2023-05-04T19:16:48.857Z,99.20
2023-05-04T19:19:15.799Z,100.00
2023-05-04T19:21:44.156Z,100.00
2023-05-04T19:24:11.454Z,100.00
2023-05-04T19:26:39.259Z,100.00
2023-05-04T19:29:06.223Z,100.00
2023-05-04T19:31:33.305Z,100.00
2023-05-04T19:34:00.459Z,100.00
2023-05-04T19:36:27.687Z,100.00
2023-05-04T19:38:54.850Z,100.00
2023-05-04T19:41:22.311Z,100.00
2023-05-04T19:43:49.286Z,100.00
2023-05-04T19:46:16.357Z,100.00
2023-05-04T19:48:43.887Z,100.00
2023-05-04T19:51:10.804Z,100.00
2023-05-04T19:53:37.869Z,100.00
2023-05-04T19:56:04.928Z,100.00
2023-05-04T19:58:32.211Z,100.00
2023-05-04T20:00:59.525Z,100.00
2023-05-04T20:03:26.677Z,100.00
2023-05-04T20:05:53.684Z,100.00
2023-05-04T20:08:20.834Z,100.00
2023-05-04T20:10:47.698Z,100.00
2023-05-04T20:13:15.121Z,100.00
2023-05-04T20:15:42.858Z,100.00
2023-05-04T20:18:09.856Z,100.00
2023-05-04T20:20:36.777Z,100.00
2023-05-04T20:23:04.408Z,100.00
2023-05-04T20:25:31.954Z,100.00
2023-05-04T20:27:59.024Z,100.00
2023-05-04T20:30:28.436Z,100.00
2023-05-04T20:32:55.530Z,100.00
2023-05-04T20:35:22.446Z,100.00
2023-05-04T20:37:49.814Z,100.00
2023-05-04T20:40:19.985Z,100.00
2023-05-04T20:42:46.950Z,100.00
2023-05-04T20:45:15.256Z,100.00
2023-05-04T20:47:42.937Z,100.00
2023-05-04T20:50:11.072Z,100.00
2023-05-04T20:52:38.727Z,100.00
2023-05-04T20:55:07.850Z,100.00
2023-05-04T20:57:35.305Z,100.00
2023-05-04T21:00:02.483Z,100.00
2023-05-04T21:02:29.662Z,100.00
2023-05-04T21:04:56.719Z,100.00
2023-05-04T21:07:26.631Z,100.00
2023-05-04T21:10:00.465Z,100.00
2023-05-04T21:12:27.529Z,100.00
2023-05-04T21:14:54.659Z,100.00
2023-05-04T21:17:21.711Z,100.00
2023-05-04T21:19:48.730Z,100.00
2023-05-04T21:22:17.982Z,100.00
2023-05-04T21:24:46.785Z,100.00
2023-05-04T21:27:14.264Z,100.00
2023-05-04T21:29:41.415Z,100.00
2023-05-04T21:32:08.386Z,100.00
2023-05-04T21:34:35.430Z,100.00
2023-05-04T21:37:03.248Z,100.00
2023-05-04T21:39:30.282Z,100.00
2023-05-04T21:41:57.617Z,100.00
2023-05-04T21:44:24.645Z,100.00
2023-05-04T21:46:52.096Z,100.00
2023-05-04T21:49:19.310Z,100.00
2023-05-04T21:51:46.303Z,100.00
2023-05-04T21:54:13.261Z,100.00
2023-05-04T21:56:42.884Z,100.00
2023-05-04T21:59:09.958Z,100.00
2023-05-04T22:01:36.900Z,100.00
2023-05-04T22:04:06.364Z,100.00
2023-05-04T22:06:33.900Z,100.00
2023-05-04T22:09:01.145Z,100.00
2023-05-04T22:11:28.240Z,100.00
2023-05-04T22:13:55.258Z,100.00
2023-05-04T22:16:22.256Z,100.00
2023-05-04T22:18:49.895Z,100.00
2023-05-04T22:21:16.900Z,100.00
2023-05-04T22:23:43.877Z,100.00
2023-05-04T22:26:10.845Z,100.00
2023-05-04T22:28:37.894Z,100.00
2023-05-04T22:31:04.954Z,100.00
2023-05-04T22:33:32.001Z,100.00
2023-05-04T22:35:59.582Z,100.00
2023-05-04T22:38:27.047Z,100.00
2023-05-04T22:40:54.113Z,100.00
2023-05-04T22:43:21.277Z,100.00
2023-05-04T22:45:48.194Z,100.00
2023-05-04T22:48:15.315Z,100.00
2023-05-04T22:50:42.533Z,100.00
2023-05-04T22:53:10.546Z,100.00
2023-05-04T22:55:37.669Z,100.00
2023-05-04T22:58:04.624Z,100.00
2023-05-04T23:00:32.042Z,100.00
2023-05-04T23:02:59.566Z,100.00
2023-05-04T23:05:27.022Z,100.00
2023-05-04T23:07:54.011Z,100.00
2023-05-04T23:10:21.464Z,100.00
2023-05-04T23:12:48.558Z,100.00
2023-05-04T23:15:15.563Z,100.00
2023-05-04T23:17:42.651Z,100.00
2023-05-04T23:20:10.324Z,100.00
2023-05-04T23:22:37.490Z,100.00
2023-05-04T23:25:04.686Z,100.00
2023-05-04T23:27:31.631Z,100.00
2023-05-04T23:29:59.623Z,100.00
2023-05-04T23:32:26.724Z,100.00
2023-05-04T23:34:54.128Z,100.00
2023-05-04T23:37:21.079Z,100.00
2023-05-04T23:39:48.033Z,100.00
2023-05-04T23:42:15.005Z,100.00
2023-05-04T23:44:41.867Z,100.00
2023-05-04T23:47:09.060Z,100.00
2023-05-04T23:49:35.958Z,100.00
2023-05-04T23:52:03.100Z,100.00
2023-05-04T23:54:30.093Z,100.00
2023-05-04T23:56:58.891Z,100.00
2023-05-04T23:59:26.657Z,100.00
